Time;durP1;ratioP1;P1;durP2;ratioP2;P2;SDS_P1;SDS_P2;PMS_P1;PMS_P2;Temp;Humidity;BMP_temperature;BMP_pressure;BME280_temperature;BME280_humidity;BME280_pressure;Samples;Min_cycle;Max_cycle;Signal;HPM_P1;HPM_P2
2023/05/21 00:00:09;;;;;;;8.08;5.95;;;14.70;99.90;;;;;;1910417;74;21694;-79
2023/05/21 00:03:02;;;;;;;8.08;6.35;;;14.70;99.90;;;;;;1904745;74;21278;-81
2023/05/21 00:05:54;;;;;;;7.05;6.45;;;14.50;99.90;;;;;;1884934;74;21237;-80
2023/05/21 00:08:45;;;;;;;7.83;6.92;;;14.50;99.90;;;;;;1877193;75;21099;-80
2023/05/21 00:11:37;;;;;;;6.60;6.00;;;14.40;99.90;;;;;;1887573;75;21188;-80
2023/05/21 00:14:28;;;;;;;7.60;6.50;;;14.40;99.90;;;;;;1879974;75;21128;-80
2023/05/21 00:17:20;;;;;;;8.50;6.40;;;14.50;99.90;;;;;;1878268;75;21518;-80
2023/05/21 00:20:12;;;;;;;7.55;5.70;;;14.50;99.90;;;;;;1873751;75;21139;-80
2023/05/21 00:23:04;;;;;;;7.20;5.10;;;14.50;99.90;;;;;;1896570;74;21107;-80
2023/05/21 00:25:55;;;;;;;5.42;4.92;;;14.50;99.90;;;;;;1892744;74;21173;-80
2023/05/21 00:28:47;;;;;;;6.53;5.87;;;14.50;99.90;;;;;;1883765;75;21651;-80
2023/05/21 00:31:38;;;;;;;7.15;6.37;;;14.40;99.90;;;;;;1881331;75;21112;-80
2023/05/21 00:34:29;;;;;;;7.67;5.55;;;14.40;99.90;;;;;;1881746;75;21544;-80
2023/05/21 00:37:23;;;;;;;7.12;6.35;;;14.40;99.90;;;;;;1844260;76;21157;-80
2023/05/21 00:40:14;;;;;;;8.25;5.65;;;14.40;99.90;;;;;;1837930;77;21575;-80
2023/05/21 00:43:06;;;;;;;6.10;5.50;;;14.40;99.90;;;;;;1816264;77;21163;-80
2023/05/21 00:45:58;;;;;;;6.22;5.62;;;14.50;99.90;;;;;;1830659;77;21123;-80
2023/05/21 00:48:52;;;;;;;8.03;6.33;;;14.60;99.90;;;;;;1818750;77;21269;-80
2023/05/21 00:51:44;;;;;;;7.15;6.10;;;14.50;99.90;;;;;;1819875;77;21129;-80
2023/05/21 00:54:35;;;;;;;8.45;6.78;;;14.50;99.90;;;;;;1892657;74;21189;-80
2023/05/21 00:57:27;;;;;;;8.08;7.17;;;14.50;99.90;;;;;;1879457;75;21190;-80
2023/05/21 01:00:19;;;;;;;7.58;6.62;;;14.40;99.90;;;;;;1887540;74;21725;-80
2023/05/21 01:03:12;;;;;;;6.40;5.80;;;14.40;99.90;;;;;;1876187;74;21067;-80
2023/05/21 01:06:04;;;;;;;7.83;6.20;;;14.50;99.90;;;;;;1888750;74;21472;-80
2023/05/21 01:08:56;;;;;;;6.33;5.72;;;14.50;99.90;;;;;;1895451;74;21128;-80
2023/05/21 01:11:50;;;;;;;7.95;6.42;;;14.50;99.90;;;;;;1895358;74;21386;-80
2023/05/21 01:14:42;;;;;;;6.17;5.58;;;14.50;99.90;;;;;;1894672;74;21063;-80
2023/05/21 01:17:34;;;;;;;6.72;5.50;;;14.50;99.90;;;;;;1893624;74;21148;-80
2023/05/21 01:20:26;;;;;;;8.00;5.70;;;14.40;99.90;;;;;;1889506;74;21184;-80
2023/05/21 01:23:19;;;;;;;6.35;5.75;;;14.40;99.90;;;;;;1891761;74;21169;-80
2023/05/21 01:26:11;;;;;;;7.67;6.08;;;14.40;99.90;;;;;;1888276;74;21272;-80
2023/05/21 01:29:11;;;;;;;6.92;6.22;;;14.40;99.90;;;;;;1898180;74;21150;-80
2023/05/21 01:32:03;;;;;;;7.53;5.67;;;14.40;99.90;;;;;;1888393;74;21171;-80
2023/05/21 01:35:00;;;;;;;6.75;6.03;;;14.30;99.90;;;;;;1898370;74;21130;-80
2023/05/21 01:37:56;;;;;;;6.10;5.50;;;14.40;99.90;;;;;;1888859;74;21157;-80
2023/05/21 01:40:51;;;;;;;8.30;5.87;;;14.40;99.90;;;;;;1894699;74;21704;-80
2023/05/21 01:43:46;;;;;;;6.83;5.97;;;14.30;99.90;;;;;;1888186;74;21571;-80
2023/05/21 01:46:38;;;;;;;7.60;6.80;;;14.30;99.90;;;;;;1903493;74;21110;-80
2023/05/21 01:49:30;;;;;;;8.93;6.28;;;14.40;99.90;;;;;;1883406;74;21150;-80
2023/05/21 01:52:22;;;;;;;8.05;6.55;;;14.40;99.90;;;;;;1890894;74;21171;-80
2023/05/21 01:55:13;;;;;;;6.72;6.03;;;14.40;99.90;;;;;;1895739;74;21082;-80
2023/05/21 01:58:05;;;;;;;7.67;6.83;;;14.30;99.90;;;;;;1896442;74;21106;-80
2023/05/21 02:01:01;;;;;;;7.05;6.42;;;14.20;99.90;;;;;;1887334;74;21215;-80
2023/05/21 02:03:53;;;;;;;7.28;6.00;;;14.30;99.90;;;;;;1895230;74;21174;-80
2023/05/21 02:06:44;;;;;;;9.05;6.15;;;14.20;99.90;;;;;;1907348;74;21603;-80
2023/05/21 02:09:36;;;;;;;8.18;6.10;;;14.10;99.90;;;;;;1910488;74;21081;-80
2023/05/21 02:12:28;;;;;;;8.88;6.50;;;14.00;99.90;;;;;;1900973;74;21141;-80
2023/05/21 02:15:21;;;;;;;8.50;6.80;;;14.00;99.90;;;;;;1917305;74;22132;-80
2023/05/21 02:18:15;;;;;;;8.18;7.35;;;14.10;99.90;;;;;;1908792;74;21066;-80
2023/05/21 02:21:07;;;;;;;7.45;6.70;;;14.10;99.90;;;;;;1907075;74;21787;-80
2023/05/21 02:23:58;;;;;;;7.22;6.50;;;14.10;99.90;;;;;;1914878;74;21156;-80
2023/05/21 02:26:51;;;;;;;10.05;6.20;;;14.20;99.90;;;;;;1918122;74;21202;-80
2023/05/21 02:29:42;;;;;;;8.05;6.35;;;14.20;99.90;;;;;;1917452;74;21521;-80
2023/05/21 02:32:34;;;;;;;7.15;6.45;;;14.20;99.90;;;;;;1898625;74;21612;-80
2023/05/21 02:35:26;;;;;;;8.13;6.17;;;14.20;99.90;;;;;;1911178;74;21173;-80
2023/05/21 02:38:21;;;;;;;7.08;6.37;;;14.20;99.90;;;;;;1895345;74;21264;-80
2023/05/21 02:41:12;;;;;;;8.63;6.53;;;14.20;99.90;;;;;;1906560;74;21071;-80
2023/05/21 02:44:04;;;;;;;9.03;6.55;;;14.30;99.90;;;;;;1906224;74;21557;-80
2023/05/21 02:46:55;;;;;;;7.00;6.30;;;14.20;99.90;;;;;;1915573;74;21124;-80
2023/05/21 02:49:47;;;;;;;8.10;5.95;;;14.20;99.90;;;;;;1831521;77;21242;-80
2023/05/21 02:52:40;;;;;;;7.67;6.87;;;14.20;99.90;;;;;;1913878;74;21093;-80
2023/05/21 02:55:31;;;;;;;9.08;6.03;;;14.20;99.90;;;;;;1906265;74;21046;-80
2023/05/21 02:58:24;;;;;;;7.20;6.50;;;14.20;99.90;;;;;;1914486;74;21221;-80
2023/05/21 03:01:16;;;;;;;9.10;6.33;;;14.20;99.90;;;;;;1906910;74;21497;-80
2023/05/21 03:04:08;;;;;;;8.05;6.95;;;14.20;99.90;;;;;;1908224;74;21101;-80
2023/05/21 03:07:00;;;;;;;7.70;6.90;;;14.30;99.90;;;;;;1909841;73;21190;-80
2023/05/21 03:09:53;;;;;;;8.58;6.90;;;14.20;99.90;;;;;;1911922;74;21214;-80
2023/05/21 03:12:44;;;;;;;10.05;7.08;;;14.10;99.90;;;;;;1906832;74;21623;-80
2023/05/21 03:15:37;;;;;;;9.38;7.22;;;14.10;99.90;;;;;;1862404;76;21099;-80
2023/05/21 03:18:31;;;;;;;6.65;5.95;;;14.10;99.90;;;;;;1863168;76;22209;-80
2023/05/21 03:21:22;;;;;;;7.10;6.40;;;14.00;99.90;;;;;;1870019;76;21169;-80
2023/05/21 03:24:14;;;;;;;7.95;6.78;;;14.00;99.90;;;;;;1899484;74;21126;-80
2023/05/21 03:27:06;;;;;;;8.43;6.95;;;14.00;99.90;;;;;;1911439;74;21322;-80
2023/05/21 03:29:58;;;;;;;8.68;6.65;;;14.10;99.90;;;;;;1914181;74;21106;-80
2023/05/21 03:32:50;;;;;;;7.65;6.85;;;14.10;99.90;;;;;;1899868;74;21145;-80
2023/05/21 03:35:41;;;;;;;7.87;6.90;;;14.10;99.90;;;;;;1913256;74;21223;-79
2023/05/21 03:38:32;;;;;;;8.13;7.17;;;14.10;99.90;;;;;;1905214;74;21068;-79
2023/05/21 03:41:26;;;;;;;6.95;6.35;;;14.00;99.90;;;;;;1907623;74;21119;-79
2023/05/21 03:44:19;;;;;;;7.58;6.78;;;14.10;99.90;;;;;;1847787;77;22044;-79
2023/05/21 03:47:16;;;;;;;8.35;7.53;;;14.00;99.90;;;;;;1900925;74;21645;-79
2023/05/21 03:50:11;;;;;;;7.45;6.75;;;14.00;99.90;;;;;;1910688;74;21557;-79
2023/05/21 03:53:02;;;;;;;7.70;6.35;;;14.10;99.90;;;;;;1906195;74;21058;-80
2023/05/21 03:55:54;;;;;;;7.53;6.67;;;14.00;99.90;;;;;;1897832;74;21201;-81
2023/05/21 03:58:49;;;;;;;8.05;6.70;;;13.90;99.90;;;;;;1903645;74;21195;-81
2023/05/21 04:01:42;;;;;;;7.45;6.70;;;13.90;99.90;;;;;;1903081;74;21174;-81
2023/05/21 04:04:37;;;;;;;9.85;7.05;;;14.00;99.90;;;;;;1904858;74;21125;-81
2023/05/21 04:07:29;;;;;;;8.18;6.80;;;14.00;99.90;;;;;;1905914;74;21074;-81
2023/05/21 04:10:22;;;;;;;8.73;7.83;;;13.90;99.90;;;;;;1901991;74;21206;-81
2023/05/21 04:13:14;;;;;;;12.40;7.33;;;14.00;99.90;;;;;;1891967;74;21113;-80
2023/05/21 04:16:07;;;;;;;10.65;6.85;;;14.00;99.90;;;;;;1899205;74;21110;-80
2023/05/21 04:18:59;;;;;;;9.05;7.55;;;13.90;99.90;;;;;;1895024;74;21181;-80
2023/05/21 04:21:52;;;;;;;8.25;7.42;;;13.80;99.90;;;;;;1882979;75;21138;-80
2023/05/21 04:24:45;;;;;;;8.15;7.40;;;13.80;99.90;;;;;;1898028;74;21132;-79
2023/05/21 04:27:38;;;;;;;9.28;7.58;;;13.90;99.90;;;;;;1892152;74;21188;-79
2023/05/21 04:30:30;;;;;;;7.75;6.95;;;13.90;99.90;;;;;;1880836;75;21171;-80
2023/05/21 04:33:23;;;;;;;6.92;6.00;;;13.90;99.90;;;;;;1874617;75;21187;-80
2023/05/21 04:36:16;;;;;;;8.15;6.15;;;14.00;99.90;;;;;;1880978;75;21080;-80
2023/05/21 04:39:07;;;;;;;6.42;5.85;;;14.00;99.90;;;;;;1885255;75;21129;-80
2023/05/21 04:42:00;;;;;;;8.23;6.40;;;14.00;99.90;;;;;;1891404;75;21153;-80
2023/05/21 04:44:54;;;;;;;6.35;5.78;;;14.00;99.90;;;;;;1869807;75;21213;-79
2023/05/21 04:47:45;;;;;;;7.30;6.37;;;14.00;99.90;;;;;;1884906;75;21124;-80
2023/05/21 04:50:37;;;;;;;6.17;5.58;;;14.00;99.90;;;;;;1876177;75;21190;-80
2023/05/21 04:53:29;;;;;;;6.75;5.65;;;13.90;99.90;;;;;;1882566;75;21234;-80
2023/05/21 04:56:21;;;;;;;7.22;6.53;;;13.80;99.90;;;;;;1887299;75;21217;-80
2023/05/21 04:59:13;;;;;;;9.45;6.00;;;13.80;99.90;;;;;;1884976;75;21070;-80
2023/05/21 05:02:05;;;;;;;6.60;5.65;;;13.80;99.90;;;;;;1884521;75;21248;-80
2023/05/21 05:04:58;;;;;;;6.33;5.72;;;13.80;99.90;;;;;;1881511;74;21640;-80
2023/05/21 05:07:49;;;;;;;7.35;5.67;;;13.70;99.90;;;;;;1888834;75;21203;-80
2023/05/21 05:10:41;;;;;;;7.30;5.92;;;13.70;99.90;;;;;;1881179;75;21102;-80
2023/05/21 05:13:33;;;;;;;8.50;6.00;;;13.70;99.90;;;;;;1883405;75;21051;-80
2023/05/21 05:16:25;;;;;;;7.33;6.03;;;13.70;99.90;;;;;;1891331;74;21573;-80
2023/05/21 05:19:18;;;;;;;7.50;5.70;;;13.80;99.90;;;;;;1898151;74;21198;-80
2023/05/21 05:22:10;;;;;;;7.78;6.00;;;13.80;99.90;;;;;;1878112;75;21107;-80
2023/05/21 05:25:08;;;;;;;6.80;6.12;;;13.90;99.90;;;;;;1883015;75;21083;-80
2023/05/21 05:28:00;;;;;;;5.58;5.08;;;13.90;99.90;;;;;;1884321;75;21145;-80
2023/05/21 05:30:51;;;;;;;8.38;5.75;;;14.00;99.90;;;;;;1891941;74;21225;-80
2023/05/21 05:33:44;;;;;;;7.30;5.70;;;14.10;99.90;;;;;;1873411;75;21208;-80
2023/05/21 05:36:36;;;;;;;6.65;5.65;;;14.10;99.90;;;;;;1887696;75;21152;-79
2023/05/21 05:39:30;;;;;;;6.35;5.75;;;14.20;99.90;;;;;;1895930;74;21137;-80
2023/05/21 05:42:22;;;;;;;7.17;5.60;;;14.20;99.90;;;;;;1877405;75;21171;-80
2023/05/21 05:45:14;;;;;;;6.22;5.60;;;14.20;99.90;;;;;;1897788;74;21106;-80
2023/05/21 05:48:06;;;;;;;7.60;6.00;;;14.20;99.90;;;;;;1885131;75;21104;-79
2023/05/21 05:51:01;;;;;;;6.58;5.95;;;14.20;99.90;;;;;;1880941;75;21112;-79
2023/05/21 05:53:56;;;;;;;8.83;6.83;;;14.20;99.90;;;;;;1885467;75;21152;-80
2023/05/21 05:56:48;;;;;;;6.80;6.20;;;14.30;99.90;;;;;;1895606;74;21269;-80
2023/05/21 05:59:40;;;;;;;6.60;5.92;;;14.40;99.90;;;;;;1898665;74;21224;-80
2023/05/21 06:02:33;;;;;;;7.15;5.85;;;14.30;99.90;;;;;;1891032;74;21171;-80
2023/05/21 06:05:25;;;;;;;6.20;5.60;;;14.30;99.90;;;;;;1895843;74;21208;-79
2023/05/21 06:08:16;;;;;;;7.12;5.45;;;14.40;99.90;;;;;;1897829;74;21862;-79
2023/05/21 06:11:08;;;;;;;9.88;6.37;;;14.40;99.90;;;;;;1886043;75;21078;-80
2023/05/21 06:14:00;;;;;;;7.28;5.55;;;14.40;99.90;;;;;;1881847;74;21258;-79
2023/05/21 06:16:52;;;;;;;7.35;5.90;;;14.40;99.90;;;;;;1876848;75;21146;-80
2023/05/21 06:22:23;;;;;;;6.92;6.12;;;14.60;99.90;;;;;;1939940;72;22166;-79
2023/05/21 06:25:17;;;;;;;8.43;6.15;;;14.60;99.90;;;;;;1927169;74;21505;-79
2023/05/21 06:28:08;;;;;;;7.42;6.05;;;14.60;99.90;;;;;;1920122;74;21125;-79
2023/05/21 06:31:00;;;;;;;7.00;6.30;;;14.70;99.90;;;;;;1925331;74;21649;-81
2023/05/21 06:33:53;;;;;;;6.53;5.92;;;14.70;99.90;;;;;;1919429;74;21197;-81
2023/05/21 06:36:45;;;;;;;6.90;6.20;;;14.70;99.90;;;;;;1923515;74;21178;-80
2023/05/21 06:39:37;;;;;;;6.33;5.70;;;14.60;99.90;;;;;;1920560;74;21157;-80
2023/05/21 06:42:29;;;;;;;5.90;5.40;;;14.60;99.90;;;;;;1922936;74;21306;-80
2023/05/21 06:45:38;;;;;;;7.08;5.78;;;14.60;99.90;;;;;;1918417;74;21123;-80
2023/05/21 06:48:32;;;;;;;6.95;6.12;;;14.60;99.90;;;;;;1922960;74;21103;-80
2023/05/21 06:51:23;;;;;;;6.85;6.00;;;14.70;99.90;;;;;;1918379;74;21179;-80
2023/05/21 06:54:14;;;;;;;6.90;6.05;;;14.80;99.90;;;;;;1922290;74;21153;-80
2023/05/21 06:57:06;;;;;;;7.08;5.80;;;14.90;99.90;;;;;;1921550;74;21144;-80
2023/05/21 06:59:58;;;;;;;7.00;6.05;;;15.00;99.90;;;;;;1924413;74;21052;-80
2023/05/21 07:02:49;;;;;;;7.40;6.30;;;15.10;99.90;;;;;;1920756;74;21212;-80
2023/05/21 07:05:41;;;;;;;7.17;6.37;;;15.10;99.90;;;;;;1919537;73;21214;-79
2023/05/21 07:08:33;;;;;;;8.33;6.72;;;15.20;99.90;;;;;;1921056;74;21060;-80
2023/05/21 07:11:27;;;;;;;9.03;6.85;;;15.40;99.90;;;;;;1921340;74;21493;-80
2023/05/21 07:14:18;;;;;;;7.10;6.42;;;15.50;99.90;;;;;;1921150;74;21119;-80
2023/05/21 07:17:10;;;;;;;8.18;7.12;;;15.50;99.90;;;;;;1917745;74;21097;-80
2023/05/21 07:20:06;;;;;;;7.87;7.08;;;15.50;99.90;;;;;;1922916;74;21080;-79
2023/05/21 07:22:59;;;;;;;10.32;6.90;;;15.50;99.90;;;;;;1913466;74;21163;-80
2023/05/21 07:25:51;;;;;;;9.33;7.15;;;15.60;99.90;;;;;;1896529;74;21137;-80
2023/05/21 07:28:43;;;;;;;8.58;7.78;;;15.80;99.90;;;;;;1907355;74;21562;-79
2023/05/21 07:31:34;;;;;;;7.45;6.83;;;15.90;99.90;;;;;;1909465;74;21117;-86
2023/05/21 07:34:27;;;;;;;7.83;7.08;;;15.90;99.90;;;;;;1902025;74;21762;-86
2023/05/21 07:37:22;;;;;;;8.53;7.22;;;16.00;99.90;;;;;;1908653;74;21166;-77
2023/05/21 07:42:56;;;;;;;7.65;6.85;;;16.10;99.90;;;;;;1934737;72;22225;-84
2023/05/21 07:45:49;;;;;;;8.93;7.03;;;16.10;99.90;;;;;;1890628;75;21400;-85
2023/05/21 07:48:42;;;;;;;8.00;7.20;;;16.10;99.90;;;;;;1892719;75;21121;-84
2023/05/21 07:51:35;;;;;;;7.95;7.17;;;16.10;99.90;;;;;;1902188;75;21201;-85
2023/05/21 07:54:26;;;;;;;8.43;7.37;;;16.00;99.90;;;;;;1898571;75;21244;-87
2023/05/21 07:59:57;;;;;;;7.92;7.12;;;16.20;99.90;;;;;;1933029;72;22722;-84
2023/05/21 08:02:48;;;;;;;9.33;7.62;;;16.20;99.90;;;;;;1909739;74;21165;-85
2023/05/21 08:08:20;;;;;;;8.55;7.25;;;16.10;99.90;;;;;;1928768;72;22261;-85
2023/05/21 08:11:14;;;;;;;7.75;7.05;;;16.10;99.90;;;;;;1900554;74;21083;-85
2023/05/21 08:14:06;;;;;;;9.95;7.83;;;16.10;99.90;;;;;;1897702;74;21078;-85
2023/05/21 08:16:57;;;;;;;8.00;7.20;;;16.10;99.90;;;;;;1907015;74;21126;-85
2023/05/21 08:19:49;;;;;;;8.45;7.55;;;16.10;99.90;;;;;;1897873;74;22022;-84
2023/05/21 08:22:42;;;;;;;10.48;7.97;;;16.20;99.90;;;;;;1895781;74;21102;-85
2023/05/21 08:25:34;;;;;;;8.85;7.70;;;16.30;99.90;;;;;;1895467;74;21193;-85
2023/05/21 08:28:27;;;;;;;8.55;7.60;;;16.40;99.90;;;;;;1893399;74;21150;-85
2023/05/21 08:31:20;;;;;;;8.73;7.92;;;16.50;99.90;;;;;;1894210;74;21248;-85
2023/05/21 08:34:13;;;;;;;8.23;7.42;;;16.50;99.90;;;;;;1892201;74;21186;-85
2023/05/21 08:37:06;;;;;;;8.08;7.20;;;16.60;99.90;;;;;;1889680;74;21142;-84
2023/05/21 08:40:16;;;;;;;8.38;7.58;;;16.70;99.90;;;;;;1897731;74;21109;-85
2023/05/21 08:43:12;;;;;;;8.93;7.72;;;16.70;99.90;;;;;;1888628;74;21173;-85
2023/05/21 08:46:04;;;;;;;8.65;7.80;;;16.70;99.90;;;;;;1894260;74;21076;-77
2023/05/21 08:48:59;;;;;;;8.05;7.15;;;16.60;99.90;;;;;;1900249;74;21058;-77
2023/05/21 08:51:51;;;;;;;8.55;7.65;;;16.80;99.90;;;;;;1903275;74;21155;-77
2023/05/21 08:54:44;;;;;;;10.85;8.23;;;16.70;99.90;;;;;;1899679;74;21070;-77
2023/05/21 09:00:19;;;;;;;9.93;8.98;;;16.80;99.90;;;;;;1934617;72;22232;-77
2023/05/21 09:03:12;;;;;;;10.15;8.75;;;17.00;99.90;;;;;;1906810;74;21208;-77
2023/05/21 09:06:08;;;;;;;8.95;8.15;;;17.10;99.90;;;;;;1898893;73;21119;-77
2023/05/21 09:09:01;;;;;;;8.73;7.50;;;17.20;99.90;;;;;;1911757;74;21181;-76
2023/05/21 09:11:54;;;;;;;9.08;7.60;;;17.20;99.90;;;;;;1871584;76;21187;-77
2023/05/21 09:14:51;;;;;;;8.78;7.87;;;17.30;99.90;;;;;;1905792;74;21155;-77
2023/05/21 09:17:46;;;;;;;11.12;8.93;;;17.30;99.90;;;;;;1910345;74;21061;-77
2023/05/21 09:20:44;;;;;;;9.05;8.08;;;17.20;99.90;;;;;;1906583;74;21587;-77
2023/05/21 09:23:35;;;;;;;9.05;8.25;;;17.20;99.90;;;;;;1903847;74;21105;-77
2023/05/21 09:26:27;;;;;;;8.45;7.50;;;17.30;99.90;;;;;;1916738;74;21186;-79
2023/05/21 09:29:20;;;;;;;8.63;7.72;;;17.40;99.90;;;;;;1910834;74;21479;-77
2023/05/21 09:32:12;;;;;;;8.70;7.87;;;17.50;99.90;;;;;;1909630;74;21169;-77
2023/05/21 09:35:10;;;;;;;7.83;7.10;;;17.50;99.90;;;;;;1905114;73;21155;-77
2023/05/21 09:38:00;;;;;;;;;;;17.50;99.90;;;;;;1911942;74;21138;-77
2023/05/21 09:40:54;;;;;;;7.72;7.10;;;17.50;99.90;;;;;;1909686;74;20234;-77
2023/05/21 09:43:46;;;;;;;7.83;6.92;;;17.70;99.90;;;;;;1908186;74;21202;-77
2023/05/21 09:46:42;;;;;;;8.13;7.33;;;17.60;99.90;;;;;;1903565;74;21102;-77
2023/05/21 09:49:33;;;;;;;8.05;7.12;;;17.50;99.90;;;;;;1911184;74;21104;-77
2023/05/21 09:52:27;;;;;;;7.92;7.17;;;17.50;99.90;;;;;;1865449;76;21216;-77
2023/05/21 09:55:22;;;;;;;8.93;7.22;;;17.50;99.90;;;;;;1865777;76;21246;-77
2023/05/21 09:58:13;;;;;;;8.78;7.90;;;17.60;99.90;;;;;;1901555;74;21049;-77
2023/05/21 10:01:05;;;;;;;11.30;7.70;;;17.70;99.90;;;;;;1905435;75;21541;-77
2023/05/21 10:04:00;;;;;;;10.05;8.13;;;17.80;99.90;;;;;;1914100;74;21699;-77
2023/05/21 10:06:52;;;;;;;9.25;8.10;;;17.90;99.90;;;;;;1889287;75;21216;-77
2023/05/21 10:09:44;;;;;;;8.73;7.85;;;17.90;99.90;;;;;;1890465;75;21083;-77
2023/05/21 10:12:36;;;;;;;10.82;8.40;;;18.00;99.90;;;;;;1858257;77;21114;-77
2023/05/21 10:15:31;;;;;;;10.20;8.08;;;18.00;99.90;;;;;;1860094;76;21109;-77
2023/05/21 10:18:23;;;;;;;10.10;8.23;;;18.00;99.90;;;;;;1914682;74;21208;-75
2023/05/21 10:21:16;;;;;;;11.35;8.50;;;18.10;99.90;;;;;;1912670;74;21183;-76
2023/05/21 10:24:08;;;;;;;9.45;8.45;;;18.00;99.90;;;;;;1859590;77;21166;-75
2023/05/21 10:27:00;;;;;;;9.18;8.35;;;18.10;99.90;;;;;;1851342;77;21620;-76
2023/05/21 10:29:54;;;;;;;9.73;8.60;;;18.10;99.90;;;;;;1861643;77;21243;-76
2023/05/21 10:32:47;;;;;;;9.28;8.35;;;17.90;99.90;;;;;;1906271;74;21181;-77
2023/05/21 10:35:40;;;;;;;8.78;7.97;;;17.90;99.90;;;;;;1898891;74;21178;-76
2023/05/21 10:38:33;;;;;;;9.80;8.50;;;17.90;99.90;;;;;;1858817;76;21213;-76
2023/05/21 10:41:26;;;;;;;10.78;8.88;;;17.80;99.90;;;;;;1861001;77;21149;-76
2023/05/21 10:44:23;;;;;;;7.87;7.17;;;17.80;99.90;;;;;;1839749;77;21180;-76
2023/05/21 10:47:39;;;;;;;7.70;7.05;;;17.80;99.90;;;;;;1897410;74;21202;-76
2023/05/21 10:50:41;;;;;;;9.35;7.78;;;17.80;99.90;;;;;;1897672;74;21156;-75
2023/05/21 10:53:38;;;;;;;9.25;8.25;;;17.90;99.90;;;;;;1896482;75;21107;-75
2023/05/21 10:56:33;;;;;;;9.10;8.15;;;17.90;99.90;;;;;;1904404;74;21116;-75
2023/05/21 10:59:33;;;;;;;8.38;7.58;;;17.90;99.90;;;;;;1903762;75;21159;-75
2023/05/21 11:02:27;;;;;;;8.30;7.50;;;17.90;99.90;;;;;;1858949;76;21584;-75
2023/05/21 11:05:37;;;;;;;8.55;7.75;;;17.90;99.90;;;;;;1854080;75;21583;-75
2023/05/21 11:08:30;;;;;;;8.38;7.40;;;18.10;99.90;;;;;;1854192;76;21230;-75
2023/05/21 11:11:43;;;;;;;9.00;7.58;;;18.20;99.90;;;;;;1863553;76;21174;-76
2023/05/21 11:14:38;;;;;;;9.68;8.03;;;18.30;99.90;;;;;;1858423;76;21114;-76
2023/05/21 11:17:43;;;;;;;10.65;8.03;;;18.30;99.90;;;;;;1857124;76;21202;-76
2023/05/21 11:20:36;;;;;;;8.55;7.70;;;18.40;99.90;;;;;;1857569;76;21155;-76
2023/05/21 11:23:37;;;;;;;8.48;7.72;;;18.40;99.90;;;;;;1854765;76;21179;-76
2023/05/21 11:26:32;;;;;;;10.53;8.20;;;18.60;99.90;;;;;;1860910;75;21106;-76
2023/05/21 11:29:30;;;;;;;8.55;7.47;;;18.70;99.90;;;;;;1856606;76;21194;-76
2023/05/21 11:32:22;;;;;;;8.38;7.47;;;18.80;99.90;;;;;;1863670;76;21177;-76
2023/05/21 11:35:15;;;;;;;8.48;7.47;;;18.90;99.90;;;;;;1854005;76;21096;-76
2023/05/21 11:38:09;;;;;;;8.58;7.75;;;19.00;99.90;;;;;;1859295;76;21123;-76
2023/05/21 11:41:04;;;;;;;8.08;7.28;;;19.00;99.90;;;;;;1859944;76;21217;-76
2023/05/21 11:44:02;;;;;;;8.35;7.55;;;19.10;99.90;;;;;;1842329;76;21165;-76
2023/05/21 11:46:54;;;;;;;8.33;7.47;;;19.20;99.90;;;;;;1862967;76;21174;-76
2023/05/21 11:49:47;;;;;;;8.58;7.67;;;19.10;99.90;;;;;;1849832;76;22204;-76
2023/05/21 11:52:40;;;;;;;10.85;7.78;;;19.20;99.90;;;;;;1857787;76;21107;-76
2023/05/21 11:55:31;;;;;;;9.78;8.78;;;19.20;99.90;;;;;;1861616;76;21192;-76
2023/05/21 11:58:23;;;;;;;8.88;7.97;;;19.20;99.90;;;;;;1856499;76;21637;-76
2023/05/21 12:01:23;;;;;;;9.00;8.08;;;19.40;99.90;;;;;;1866591;75;21223;-76
2023/05/21 12:04:15;;;;;;;9.03;8.18;;;19.60;99.90;;;;;;1895926;75;21098;-76
2023/05/21 12:07:07;;;;;;;8.38;7.47;;;19.90;99.90;;;;;;1887293;74;21223;-77
2023/05/21 12:09:58;;;;;;;9.45;8.28;;;20.10;99.90;;;;;;1909646;74;21132;-76
2023/05/21 12:12:50;;;;;;;8.43;7.62;;;20.40;99.90;;;;;;1904269;74;21600;-76
2023/05/21 12:15:42;;;;;;;8.05;7.30;;;20.30;99.90;;;;;;1865605;77;21161;-76
2023/05/21 12:18:34;;;;;;;7.80;7.10;;;20.50;99.90;;;;;;1849242;77;21097;-76
2023/05/21 12:21:28;;;;;;;8.20;7.45;;;20.80;99.90;;;;;;1826292;77;21127;-76
2023/05/21 12:24:20;;;;;;;8.45;7.65;;;21.00;99.90;;;;;;1844593;76;21130;-76
2023/05/21 12:27:12;;;;;;;7.95;7.22;;;21.10;99.90;;;;;;1869702;76;21166;-76
2023/05/21 12:30:05;;;;;;;7.85;7.15;;;21.30;99.90;;;;;;1881694;76;21621;-76
2023/05/21 12:33:00;;;;;;;8.00;7.12;;;21.30;99.90;;;;;;1909441;74;21103;-76
2023/05/21 12:35:52;;;;;;;8.28;7.58;;;21.40;99.90;;;;;;1931871;74;21163;-76
2023/05/21 12:38:46;;;;;;;8.20;7.15;;;21.20;99.90;;;;;;1917680;74;21083;-76
2023/05/21 12:41:37;;;;;;;8.33;7.53;;;20.90;99.90;;;;;;1882879;76;21122;-76
2023/05/21 12:44:31;;;;;;;7.67;6.97;;;20.70;99.90;;;;;;1883836;75;21170;-76
2023/05/21 12:47:26;;;;;;;8.00;7.03;;;20.60;99.90;;;;;;1931940;74;21157;-76
2023/05/21 12:50:20;;;;;;;7.60;6.90;;;20.90;99.90;;;;;;1931790;74;21127;-76
2023/05/21 12:53:11;;;;;;;7.87;7.17;;;21.30;99.90;;;;;;1919248;74;21097;-76
2023/05/21 12:56:10;;;;;;;8.53;6.65;;;21.60;99.90;;;;;;1897692;75;21079;-76
2023/05/21 12:59:02;;;;;;;7.22;6.42;;;21.80;99.90;;;;;;1894008;75;21100;-76
2023/05/21 13:01:54;;;;;;;8.10;6.65;;;22.00;99.90;;;;;;1937050;74;21184;-76
2023/05/21 13:04:46;;;;;;;7.03;6.42;;;22.00;99.90;;;;;;1928210;74;21110;-76
2023/05/21 13:07:39;;;;;;;8.15;7.22;;;22.10;99.90;;;;;;1932372;74;21105;-76
2023/05/21 13:10:31;;;;;;;8.13;6.92;;;22.10;99.90;;;;;;1905606;74;21156;-76
2023/05/21 13:13:23;;;;;;;8.60;6.78;;;22.30;99.90;;;;;;1940148;74;21200;-76
2023/05/21 13:16:15;;;;;;;7.60;6.90;;;22.50;99.90;;;;;;1903175;74;21086;-76
2023/05/21 13:19:06;;;;;;;6.70;6.10;;;22.50;99.90;;;;;;1938192;74;21138;-76
2023/05/21 13:21:58;;;;;;;7.10;6.40;;;22.60;99.90;;;;;;1916015;74;21165;-76
2023/05/21 13:24:49;;;;;;;7.37;6.60;;;22.40;99.90;;;;;;1917366;74;21138;-76
2023/05/21 13:27:41;;;;;;;7.22;6.62;;;22.40;99.90;;;;;;1914311;74;21668;-76
2023/05/21 13:30:32;;;;;;;9.55;6.90;;;22.20;99.90;;;;;;1902097;73;21122;-76
2023/05/21 13:33:25;;;;;;;6.83;6.20;;;22.10;99.90;;;;;;1925242;74;21127;-76
2023/05/21 13:36:17;;;;;;;7.15;6.47;;;22.20;99.90;;;;;;1938127;74;21577;-76
2023/05/21 13:39:08;;;;;;;7.97;6.60;;;22.30;99.90;;;;;;1938153;74;21058;-76
2023/05/21 13:42:00;;;;;;;8.15;6.17;;;22.30;99.90;;;;;;1923316;74;21107;-76
2023/05/21 13:44:53;;;;;;;7.50;6.72;;;22.30;99.90;;;;;;1925416;74;21107;-76
2023/05/21 13:47:46;;;;;;;7.58;6.80;;;22.30;99.90;;;;;;1906070;74;21163;-76
2023/05/21 13:50:38;;;;;;;7.30;6.60;;;22.40;99.90;;;;;;1925369;74;21527;-76
2023/05/21 13:53:30;;;;;;;8.48;6.45;;;22.30;99.90;;;;;;1905355;74;21100;-76
2023/05/21 13:56:22;;;;;;;6.95;6.22;;;22.60;99.90;;;;;;1930522;74;21156;-76
2023/05/21 13:59:13;;;;;;;7.00;6.30;;;22.90;99.90;;;;;;1917270;74;21099;-76
2023/05/21 14:02:05;;;;;;;7.15;6.55;;;22.80;99.90;;;;;;1922557;74;21110;-77
2023/05/21 14:04:57;;;;;;;6.97;6.28;;;22.80;99.90;;;;;;1892134;74;21213;-76
2023/05/21 14:07:50;;;;;;;7.20;6.55;;;22.90;99.90;;;;;;1871494;76;21253;-76
2023/05/21 14:10:42;;;;;;;9.70;6.58;;;22.80;99.90;;;;;;1823267;78;21117;-76
2023/05/21 14:13:33;;;;;;;6.85;6.28;;;23.00;99.90;;;;;;1862315;75;21104;-82
2023/05/21 14:19:05;;;;;;;7.85;7.03;;;23.10;99.90;;;;;;1952899;72;22228;-78
2023/05/21 14:21:58;;;;;;;7.20;6.45;;;23.10;99.90;;;;;;1916637;75;21143;-78
2023/05/21 14:24:49;;;;;;;6.37;5.75;;;23.40;99.90;;;;;;1916395;75;21580;-80
2023/05/21 14:30:20;;;;;;;5.90;5.40;;;23.80;99.90;;;;;;1953425;72;22159;-78
2023/05/21 14:33:12;;;;;;;6.65;6.05;;;23.60;99.90;;;;;;1900385;73;21225;-78
2023/05/21 14:38:43;;;;;;;6.67;6.08;;;23.30;99.90;;;;;;1952323;72;22232;-78
2023/05/21 14:44:13;;;;;;;7.40;6.50;;;23.20;99.90;;;;;;1941224;72;22198;-79
2023/05/21 14:49:43;;;;;;;6.08;5.47;;;23.20;99.90;;;;;;1937349;72;22621;-78
2023/05/21 14:52:36;;;;;;;6.67;5.97;;;23.40;99.90;;;;;;1892691;75;21103;-78
2023/05/21 14:58:07;;;;;;;6.53;5.67;;;23.40;99.90;;;;;;1954886;72;22174;-79
2023/05/21 15:00:58;;;;;;;8.23;5.33;;;23.50;99.90;;;;;;1901270;75;21154;-78
2023/05/21 15:03:50;;;;;;;6.67;5.75;;;23.10;99.90;;;;;;1896139;75;21099;-77
2023/05/21 15:06:42;;;;;;;6.25;5.65;;;22.80;99.90;;;;;;1908842;75;21180;-77
2023/05/21 15:09:34;;;;;;;5.72;5.17;;;23.10;99.90;;;;;;1905612;75;21138;-77
2023/05/21 15:12:26;;;;;;;6.05;5.33;;;23.10;99.90;;;;;;1902579;75;21106;-77
2023/05/21 15:15:19;;;;;;;5.72;5.17;;;23.00;99.90;;;;;;1897622;75;21108;-77
2023/05/21 15:18:11;;;;;;;5.92;5.40;;;23.00;99.90;;;;;;1907213;75;21114;-77
2023/05/21 15:21:02;;;;;;;5.22;4.80;;;22.90;99.90;;;;;;1903632;75;21115;-77
2023/05/21 15:23:53;;;;;;;4.58;4.17;;;23.00;99.90;;;;;;1903693;75;21103;-77
2023/05/21 15:26:45;;;;;;;5.28;4.85;;;23.10;99.90;;;;;;1901338;75;21063;-78